createdAt,value
2023-01-15T00:01:20.493Z,100.00
2023-01-15T00:04:23.331Z,100.00
2023-01-15T00:07:26.205Z,100.00
2023-01-15T00:10:29.523Z,100.00
2023-01-15T00:13:32.474Z,100.00
2023-01-15T00:16:35.457Z,100.00
2023-01-15T00:19:38.396Z,100.00
2023-01-15T00:22:41.324Z,100.00
2023-01-15T00:26:02.599Z,100.00
2023-01-15T00:29:06.090Z,100.00
2023-01-15T00:32:13.555Z,100.00
2023-01-15T00:35:19.819Z,100.00
2023-01-15T00:38:22.792Z,100.00
2023-01-15T00:41:25.729Z,100.00
2023-01-15T00:44:28.726Z,100.00
2023-01-15T00:47:31.648Z,100.00
2023-01-15T00:50:35.453Z,100.00
2023-01-15T00:53:38.246Z,100.00
2023-01-15T00:56:41.043Z,100.00
2023-01-15T00:59:43.909Z,100.00
2023-01-15T01:02:46.778Z,100.00
2023-01-15T01:05:50.147Z,100.00
2023-01-15T01:08:53.072Z,100.00
2023-01-15T01:11:55.914Z,100.00
2023-01-15T01:14:58.666Z,100.00
2023-01-15T01:18:02.194Z,100.00
2023-01-15T01:21:07.070Z,100.00
2023-01-15T01:24:12.840Z,100.00
2023-01-15T01:27:16.931Z,100.00
2023-01-15T01:30:21.443Z,100.00
2023-01-15T01:33:24.264Z,100.00
2023-01-15T01:36:33.397Z,100.00
2023-01-15T01:39:36.434Z,100.00
2023-01-15T01:42:39.361Z,100.00
2023-01-15T01:45:42.310Z,100.00
2023-01-15T01:48:46.102Z,100.00
2023-01-15T01:52:11.676Z,100.00
2023-01-15T01:55:17.963Z,100.00
2023-01-15T01:58:23.108Z,100.00
2023-01-15T02:01:26.789Z,100.00
2023-01-15T02:04:31.425Z,100.00
2023-01-15T02:07:35.657Z,100.00
2023-01-15T02:10:39.502Z,100.00
2023-01-15T02:14:12.699Z,100.00
2023-01-15T02:17:22.307Z,100.00
2023-01-15T02:20:38.913Z,100.00
2023-01-15T02:24:05.775Z,100.00
2023-01-15T02:27:21.763Z,100.00
2023-01-15T02:30:40.431Z,100.00
2023-01-15T02:34:10.382Z,100.00
2023-01-15T02:37:19.097Z,100.00
2023-01-15T02:40:26.841Z,100.00
2023-01-15T02:43:35.605Z,100.00
2023-01-15T02:46:40.600Z,100.00
2023-01-15T02:49:47.160Z,100.00
2023-01-15T02:53:00.614Z,100.00
2023-01-15T02:56:15.621Z,100.00
2023-01-15T02:59:30.719Z,100.00
2023-01-15T03:02:47.685Z,100.00
2023-01-15T03:06:00.035Z,100.00
2023-01-15T03:09:04.136Z,100.00
2023-01-15T03:12:14.423Z,100.00
2023-01-15T03:15:39.311Z,100.00
2023-01-15T03:18:53.732Z,100.00
2023-01-15T03:22:23.782Z,100.00
2023-01-15T03:25:33.416Z,100.00
2023-01-15T03:28:39.063Z,100.00
2023-01-15T03:31:42.201Z,100.00
2023-01-15T03:34:50.106Z,100.00
2023-01-15T03:37:55.179Z,100.00
2023-01-15T03:41:03.894Z,100.00
2023-01-15T03:44:22.935Z,100.00
2023-01-15T03:47:50.715Z,100.00
2023-01-15T03:51:07.278Z,100.00
2023-01-15T03:54:22.744Z,100.00
2023-01-15T03:57:50.852Z,100.00
2023-01-15T04:01:03.504Z,100.00
2023-01-15T04:04:07.644Z,100.00
2023-01-15T04:07:11.468Z,100.00
2023-01-15T04:10:17.781Z,100.00
2023-01-15T04:13:25.303Z,100.00
2023-01-15T04:16:31.621Z,100.00
2023-01-15T04:19:44.342Z,100.00
2023-01-15T04:22:47.434Z,100.00
2023-01-15T04:25:50.347Z,100.00
2023-01-15T04:28:53.143Z,100.00
2023-01-15T04:31:57.958Z,100.00
2023-01-15T04:35:00.881Z,100.00
2023-01-15T04:38:03.631Z,100.00
2023-01-15T04:41:25.558Z,100.00
2023-01-15T04:44:29.421Z,100.00
2023-01-15T04:47:32.227Z,100.00
2023-01-15T04:50:39.055Z,100.00
2023-01-15T04:53:43.668Z,100.00
2023-01-15T04:56:50.369Z,100.00
2023-01-15T04:59:53.088Z,100.00
2023-01-15T05:02:55.995Z,100.00
2023-01-15T05:06:02.722Z,100.00
2023-01-15T05:09:06.786Z,100.00
2023-01-15T05:12:09.898Z,100.00
2023-01-15T05:15:12.811Z,100.00
2023-01-15T05:18:15.911Z,100.00
2023-01-15T05:21:22.113Z,100.00
2023-01-15T05:24:25.336Z,100.00
2023-01-15T05:27:28.196Z,100.00
2023-01-15T05:30:31.533Z,100.00
2023-01-15T05:33:34.471Z,100.00
2023-01-15T05:36:37.835Z,100.00
2023-01-15T05:39:40.841Z,100.00
2023-01-15T05:42:43.605Z,100.00
2023-01-15T05:45:46.351Z,100.00
2023-01-15T05:48:49.693Z,100.00
2023-01-15T05:51:55.033Z,100.00
2023-01-15T05:54:57.818Z,100.00
2023-01-15T05:58:00.631Z,100.00
2023-01-15T06:01:11.664Z,100.00
2023-01-15T06:04:15.427Z,100.00
2023-01-15T06:07:18.551Z,100.00
2023-01-15T06:10:22.026Z,100.00
2023-01-15T06:13:25.205Z,100.00
2023-01-15T06:16:28.245Z,100.00
2023-01-15T06:19:31.275Z,100.00
2023-01-15T06:22:34.156Z,100.00
2023-01-15T06:25:37.395Z,100.00
2023-01-15T06:28:40.361Z,100.00
2023-01-15T06:31:43.180Z,100.00
2023-01-15T06:34:46.052Z,100.00
2023-01-15T06:37:52.129Z,100.00
2023-01-15T06:40:58.084Z,100.00
2023-01-15T06:44:19.336Z,100.00
2023-01-15T06:47:23.396Z,100.00
2023-01-15T06:50:26.960Z,100.00
2023-01-15T06:53:29.860Z,100.00
2023-01-15T06:56:32.592Z,100.00
2023-01-15T06:59:35.536Z,100.00
2023-01-15T07:02:38.819Z,100.00
2023-01-15T07:05:41.776Z,100.00
2023-01-15T07:08:44.541Z,100.00
2023-01-15T07:11:50.044Z,100.00
2023-01-15T07:14:53.338Z,100.00
2023-01-15T07:17:56.946Z,100.00
2023-01-15T07:21:00.949Z,100.00
2023-01-15T07:24:04.703Z,100.00
2023-01-15T07:27:07.577Z,100.00
2023-01-15T07:30:11.194Z,100.00
2023-01-15T07:33:16.124Z,100.00
2023-01-15T07:36:19.069Z,100.00
2023-01-15T07:39:21.948Z,100.00
2023-01-15T07:42:43.426Z,100.00
2023-01-15T07:46:07.767Z,100.00
2023-01-15T07:49:32.963Z,100.00
2023-01-15T07:52:35.874Z,100.00
2023-01-15T07:55:38.709Z,100.00
2023-01-15T07:58:41.502Z,100.00
2023-01-15T08:01:44.566Z,100.00
2023-01-15T08:04:48.153Z,98.89
2023-01-15T08:07:51.061Z,96.40
2023-01-15T08:11:14.375Z,96.35
2023-01-15T08:14:35.511Z,96.54
2023-01-15T08:17:39.586Z,96.14
2023-01-15T08:20:47.337Z,94.44
2023-01-15T08:23:51.300Z,92.24
2023-01-15T08:26:54.885Z,93.64
2023-01-15T08:29:57.797Z,92.35
2023-01-15T08:33:03.391Z,89.96
2023-01-15T08:36:06.408Z,86.65
2023-01-15T08:39:10.309Z,85.87
2023-01-15T08:42:13.205Z,84.98
2023-01-15T08:45:16.411Z,85.42
2023-01-15T08:48:19.573Z,78.77
2023-01-15T08:51:22.591Z,72.87
2023-01-15T08:54:25.794Z,70.85
2023-01-15T08:57:48.901Z,66.80
2023-01-15T09:01:15.968Z,59.48
2023-01-15T09:04:20.861Z,58.85
2023-01-15T09:07:23.811Z,59.45
2023-01-15T09:10:26.650Z,53.35
2023-01-15T09:13:30.556Z,49.02
2023-01-15T09:16:34.349Z,47.04
2023-01-15T09:19:37.656Z,50.04
2023-01-15T09:22:40.697Z,49.92
2023-01-15T09:25:57.026Z,51.89
2023-01-15T09:29:00.791Z,53.12
2023-01-15T09:32:03.908Z,54.02
2023-01-15T09:35:07.273Z,54.03
2023-01-15T09:38:14.261Z,50.04
2023-01-15T09:41:36.660Z,49.24
2023-01-15T09:44:51.685Z,43.00
2023-01-15T09:48:24.190Z,43.48
2023-01-15T09:51:52.201Z,40.79
2023-01-15T09:55:10.119Z,38.83
2023-01-15T09:58:17.207Z,40.20
2023-01-15T10:01:26.863Z,40.15
2023-01-15T10:04:43.630Z,36.33
2023-01-15T10:08:00.611Z,34.51
2023-01-15T10:11:20.330Z,34.39
2023-01-15T10:14:49.048Z,31.20
2023-01-15T10:17:55.601Z,34.63
2023-01-15T10:21:17.227Z,33.75
2023-01-15T10:24:45.746Z,32.42
2023-01-15T10:27:51.423Z,31.31
2023-01-15T10:30:56.611Z,34.16
2023-01-15T10:34:28.744Z,32.19
2023-01-15T10:37:47.305Z,32.23
2023-01-15T10:41:05.349Z,32.71
2023-01-15T10:44:45.927Z,32.69
2023-01-15T10:47:54.188Z,38.75
2023-01-15T10:51:00.647Z,36.83
2023-01-15T10:54:07.839Z,35.97
2023-01-15T10:57:18.072Z,35.32
2023-01-15T11:00:22.604Z,35.44
2023-01-15T11:03:41.077Z,33.29
2023-01-15T11:06:44.032Z,33.94
2023-01-15T11:09:47.680Z,31.10
2023-01-15T11:13:11.633Z,34.38
2023-01-15T11:16:25.168Z,32.27
2023-01-15T11:19:37.650Z,32.68
2023-01-15T11:22:40.558Z,32.54
2023-01-15T11:25:54.514Z,38.35
2023-01-15T11:29:00.038Z,38.17
2023-01-15T11:32:03.971Z,37.22
2023-01-15T11:35:18.474Z,39.39
2023-01-15T11:38:23.256Z,38.08
2023-01-15T11:41:52.579Z,37.42
2023-01-15T11:45:16.387Z,35.24
2023-01-15T11:48:40.160Z,35.52
2023-01-15T11:51:47.810Z,39.05
2023-01-15T11:54:54.479Z,37.12
2023-01-15T11:57:58.784Z,36.01
2023-01-15T12:01:02.356Z,37.91
2023-01-15T12:04:20.014Z,37.75
2023-01-15T12:07:24.996Z,39.80
2023-01-15T12:10:54.491Z,39.30
2023-01-15T12:14:02.614Z,40.73
2023-01-15T12:17:26.404Z,41.76
2023-01-15T12:20:41.064Z,41.65
2023-01-15T12:24:21.021Z,42.34
2023-01-15T12:27:47.254Z,41.49
2023-01-15T12:30:54.950Z,41.31
2023-01-15T12:34:06.716Z,44.41
2023-01-15T12:37:24.347Z,42.70
2023-01-15T12:40:45.559Z,41.94
2023-01-15T12:44:13.472Z,42.52
2023-01-15T12:47:22.882Z,42.13
2023-01-15T12:50:45.138Z,44.47
2023-01-15T12:53:58.525Z,43.50
2023-01-15T12:57:12.588Z,44.07
2023-01-15T13:00:20.208Z,44.39
2023-01-15T13:03:53.279Z,46.83
2023-01-15T13:07:18.758Z,48.74
2023-01-15T13:10:26.503Z,48.89
2023-01-15T13:13:58.265Z,49.12
2023-01-15T13:17:08.143Z,50.79
2023-01-15T13:20:50.830Z,51.24
2023-01-15T13:24:08.265Z,51.35
2023-01-15T13:27:24.212Z,51.79
2023-01-15T13:30:54.000Z,50.31
2023-01-15T13:34:02.370Z,52.08
2023-01-15T13:37:16.633Z,53.00
2023-01-15T13:40:56.807Z,52.77
2023-01-15T13:44:03.055Z,53.53
2023-01-15T13:47:30.446Z,52.64
2023-01-15T13:50:37.334Z,54.96
2023-01-15T13:53:46.311Z,56.88
2023-01-15T13:56:49.179Z,57.09
2023-01-15T13:59:52.746Z,58.71
2023-01-15T14:02:58.260Z,59.86
2023-01-15T14:06:07.118Z,59.75
2023-01-15T14:09:14.175Z,59.59
2023-01-15T14:12:36.289Z,60.24
2023-01-15T14:16:24.118Z,60.45
2023-01-15T14:19:49.024Z,60.95
2023-01-15T14:23:22.179Z,61.86
2023-01-15T14:27:04.897Z,63.06
2023-01-15T14:30:14.158Z,62.72
2023-01-15T14:33:46.329Z,63.31
2023-01-15T14:37:01.038Z,63.39
2023-01-15T14:40:06.623Z,62.96
2023-01-15T14:43:18.347Z,63.51
2023-01-15T14:46:29.441Z,64.23
2023-01-15T14:49:49.683Z,63.60
2023-01-15T14:52:54.828Z,64.10
2023-01-15T14:56:14.278Z,63.93
2023-01-15T14:59:26.131Z,65.14
2023-01-15T15:02:42.396Z,65.27
2023-01-15T15:05:46.882Z,65.84
2023-01-15T15:08:53.519Z,66.09
2023-01-15T15:12:20.856Z,66.76
2023-01-15T15:15:35.386Z,67.41
2023-01-15T15:18:58.579Z,67.75
2023-01-15T15:22:06.974Z,68.69
2023-01-15T15:25:20.276Z,69.23
2023-01-15T15:28:23.808Z,69.58
2023-01-15T15:31:28.666Z,69.73
2023-01-15T15:34:34.568Z,69.82
2023-01-15T15:37:37.416Z,70.70
2023-01-15T15:40:47.789Z,70.58
2023-01-15T15:44:15.363Z,71.35
2023-01-15T15:47:43.064Z,71.24
2023-01-15T15:50:48.156Z,72.12
2023-01-15T15:53:51.035Z,72.34
2023-01-15T15:57:09.655Z,72.58
2023-01-15T16:00:43.247Z,72.01
2023-01-15T16:03:49.680Z,72.13
2023-01-15T16:06:52.451Z,71.77
2023-01-15T16:09:59.750Z,72.22
2023-01-15T16:13:05.986Z,72.03
2023-01-15T16:16:10.280Z,72.84
2023-01-15T16:19:18.669Z,72.53
2023-01-15T16:22:22.214Z,73.28
2023-01-15T16:25:26.828Z,72.99
2023-01-15T16:28:43.549Z,72.93
2023-01-15T16:31:48.830Z,73.46
2023-01-15T16:35:05.332Z,74.09
2023-01-15T16:38:20.393Z,74.46
2023-01-15T16:41:35.413Z,75.39
2023-01-15T16:44:54.199Z,75.35
2023-01-15T16:48:08.832Z,76.34
2023-01-15T16:51:42.403Z,77.47
2023-01-15T16:54:46.661Z,77.41
2023-01-15T16:58:15.263Z,77.53
2023-01-15T17:01:32.579Z,77.65
2023-01-15T17:04:38.512Z,78.67
2023-01-15T17:07:41.656Z,79.96
2023-01-15T17:10:59.794Z,80.17
2023-01-15T17:14:10.386Z,79.91
2023-01-15T17:17:23.125Z,80.33
2023-01-15T17:20:31.658Z,80.56
2023-01-15T17:23:37.431Z,79.99
2023-01-15T17:26:40.485Z,80.03
2023-01-15T17:29:44.639Z,81.05
2023-01-15T17:32:47.733Z,81.04
2023-01-15T17:35:50.940Z,80.22
2023-01-15T17:38:54.792Z,80.41
2023-01-15T17:41:57.758Z,79.97
2023-01-15T17:45:02.082Z,80.89
2023-01-15T17:48:08.990Z,80.85
2023-01-15T17:51:14.288Z,80.18
2023-01-15T17:54:37.229Z,80.05
2023-01-15T17:57:58.777Z,79.72
2023-01-15T18:01:29.318Z,79.83
2023-01-15T18:05:04.980Z,78.76
2023-01-15T18:08:10.311Z,78.88
2023-01-15T18:11:13.576Z,79.43
2023-01-15T18:14:19.931Z,79.01
2023-01-15T18:17:23.333Z,78.46
2023-01-15T18:20:26.381Z,78.96
2023-01-15T18:23:31.326Z,79.11
2023-01-15T18:26:37.569Z,78.82
2023-01-15T18:29:40.591Z,79.66
2023-01-15T18:32:45.868Z,80.35
2023-01-15T18:35:48.856Z,80.26
2023-01-15T18:38:52.175Z,80.54
2023-01-15T18:41:55.975Z,80.90
2023-01-15T18:45:17.250Z,81.50
2023-01-15T18:48:20.339Z,80.17
2023-01-15T18:51:25.313Z,80.66
2023-01-15T18:54:28.200Z,80.82
2023-01-15T18:57:33.168Z,81.78
2023-01-15T19:00:36.233Z,82.33
2023-01-15T19:03:39.445Z,82.22
2023-01-15T19:06:42.676Z,81.63
2023-01-15T19:09:45.849Z,81.79
2023-01-15T19:12:49.488Z,81.74
2023-01-15T19:16:11.098Z,82.67
2023-01-15T19:19:17.800Z,82.71
2023-01-15T19:22:39.564Z,82.74
2023-01-15T19:25:49.574Z,82.67
2023-01-15T19:28:52.730Z,83.36
2023-01-15T19:31:55.942Z,83.07
2023-01-15T19:34:59.651Z,82.76
2023-01-15T19:38:03.334Z,83.45
2023-01-15T19:41:29.082Z,84.16
2023-01-15T19:44:50.913Z,84.61
2023-01-15T19:48:12.373Z,84.10
2023-01-15T19:51:15.437Z,85.24
2023-01-15T19:54:38.427Z,85.77
2023-01-15T19:57:43.867Z,85.42
2023-01-15T20:00:52.828Z,85.82
2023-01-15T20:03:57.402Z,85.12
2023-01-15T20:07:00.384Z,85.26
2023-01-15T20:10:04.431Z,85.23
2023-01-15T20:13:45.104Z,84.20
2023-01-15T20:16:49.238Z,84.61
2023-01-15T20:19:52.462Z,83.79
2023-01-15T20:22:58.614Z,84.99
2023-01-15T20:26:06.817Z,84.13
2023-01-15T20:29:10.111Z,83.98
2023-01-15T20:32:13.026Z,84.63
2023-01-15T20:35:19.834Z,84.57
2023-01-15T20:38:26.448Z,84.12
2023-01-15T20:41:48.392Z,84.61
2023-01-15T20:44:54.080Z,84.67
2023-01-15T20:48:11.956Z,83.82
2023-01-15T20:51:14.981Z,83.86
2023-01-15T20:54:17.767Z,84.10
2023-01-15T20:57:20.712Z,83.65
2023-01-15T21:00:24.087Z,84.19
2023-01-15T21:03:27.082Z,84.56
2023-01-15T21:06:30.113Z,84.51
2023-01-15T21:09:33.221Z,84.55
2023-01-15T21:12:36.649Z,84.96
2023-01-15T21:15:39.626Z,84.75
2023-01-15T21:18:45.482Z,85.63
2023-01-15T21:21:48.655Z,84.77
2023-01-15T21:24:51.628Z,85.27
2023-01-15T21:27:54.404Z,85.57
2023-01-15T21:30:58.018Z,85.36
2023-01-15T21:34:00.817Z,85.09
2023-01-15T21:37:03.607Z,85.80
2023-01-15T21:40:07.135Z,86.38
2023-01-15T21:43:29.350Z,86.49
2023-01-15T21:46:32.118Z,86.78
2023-01-15T21:49:35.575Z,87.34
2023-01-15T21:52:38.609Z,87.95
2023-01-15T21:55:49.195Z,88.62
2023-01-15T21:58:52.099Z,88.60
2023-01-15T22:01:56.969Z,88.88
2023-01-15T22:04:59.761Z,88.82
2023-01-15T22:08:05.058Z,89.05
2023-01-15T22:11:10.148Z,88.90
2023-01-15T22:14:18.107Z,88.76
2023-01-15T22:17:20.887Z,89.22
2023-01-15T22:20:23.770Z,89.59
2023-01-15T22:23:27.129Z,90.47
2023-01-15T22:26:33.091Z,89.88
2023-01-15T22:29:40.702Z,90.49
2023-01-15T22:32:43.609Z,90.91
2023-01-15T22:35:56.699Z,91.18
2023-01-15T22:38:59.523Z,90.89
2023-01-15T22:42:20.877Z,91.21
2023-01-15T22:45:24.638Z,90.79
2023-01-15T22:48:27.544Z,90.80
2023-01-15T22:51:30.625Z,90.76
2023-01-15T22:54:33.469Z,90.33
2023-01-15T22:57:36.578Z,90.42
2023-01-15T23:00:39.755Z,90.69
2023-01-15T23:03:42.848Z,90.63
2023-01-15T23:06:46.441Z,90.04
2023-01-15T23:09:49.489Z,90.23
2023-01-15T23:12:52.265Z,91.01
2023-01-15T23:15:59.372Z,91.31
2023-01-15T23:19:02.967Z,90.38
2023-01-15T23:22:05.882Z,90.75
2023-01-15T23:25:09.518Z,91.47
2023-01-15T23:28:12.273Z,92.42
2023-01-15T23:31:15.332Z,93.25
2023-01-15T23:34:18.147Z,92.85
2023-01-15T23:37:21.041Z,93.17
2023-01-15T23:40:23.847Z,93.87
2023-01-15T23:43:44.964Z,94.56
2023-01-15T23:46:48.229Z,93.89
2023-01-15T23:49:51.227Z,93.44
2023-01-15T23:52:54.019Z,93.22
2023-01-15T23:55:58.078Z,93.29
2023-01-15T23:59:01.088Z,93.81
